الصفحة الرئيسية
METAR-TAF:

METAR-TAF

مطار :

كوراساو, جزر الأنتيل الهولندية

دائرة عرض: 12-12N, خط طول: 068-58W, ارتفاع: 9 متر

مراقبة الطقس الحالي

تاريخ ووقت الإصدار 23 دقيقة قبل الساعة 18:00UTC
ريح 11 عقدة من الشرق
درجة الحرارة 30°درجة مئوية
الرطوبة 66%
ضغط 1013 hPa
الرؤية 10 كم أو أكثر
غيوم قليلة على ارتفاع 2400 قدم

METAR: TNCC 041800Z 09011KT 9999 FEW024 30/23 Q1013 NOSIG

زمن: 14:23 (18:23 UTC)

توقعات

تاريخ ووقت الإصدار 1ساعة و 8 دقيقة قبل الساعة 17:15UTC
التوقعات صالحة من04 الساعة 18 UTC إلى 05 الساعة 18 UTC
ريح 13 عقدة من الشرق
الرؤية 10 كم أو أكثر
غيوم متفرقة على ارتفاع 2500 قدم
نظرية الاحتمالات 30% :
مؤقت
من 05 الساعة 04 UTC إلى 05 الساعة 14 UTC
ريح 20 عقدة من الشرق
الرؤية: 7000 متر
غيوم متفرقة على ارتفاع 1500 قدم
غيوم مفككة على ارتفاع 2000 قدم
زخات من الأمطار الخفيفة,

TAF: TNCC 041715Z 0418/0518 09013KT 9999 SCT025 PROB30 TEMPO 0504/0514 09020KT 7000 -SHRA SCT015 BKN020

أرصاد الطقس والتوقعات من أكثر من 4000 مطار (تقارير الطقس للمطار METAR والتنبؤ بالطقس بالمطارTAF).

المحطات المتاحة هي النقط الصفراء والحمراء على الخريطة.

حرك المؤشر فوق النقطة لمعرفة اسم المحطة.

ثم انقر لمعرفة أرصاد وتوقعات الطقس.

لتغيير الخارطة: اضغط على الأزرار الخضراء مع رمز الصليب الأسود للتكبير. على الزر الأخضر مع شرطة للتصغير، أو على الأسهم الخضراء للخرائط المجاورة.


METAR-TAF: